createdAt,value
2017-09-24T00:00:06.837Z,25.20
2017-09-24T00:02:33.507Z,26.20
2017-09-24T00:05:00.134Z,26.87
2017-09-24T00:07:26.740Z,25.98
2017-09-24T00:09:53.360Z,27.50
2017-09-24T00:12:19.981Z,28.67
2017-09-24T00:14:47.424Z,24.27
2017-09-24T00:17:14.042Z,28.15
2017-09-24T00:19:40.670Z,29.92
2017-09-24T00:22:07.282Z,25.23
2017-09-24T00:24:33.897Z,25.58
2017-09-24T00:27:00.524Z,27.70
2017-09-24T00:29:27.137Z,26.58
2017-09-24T00:31:53.745Z,28.00
2017-09-24T00:34:20.369Z,24.77
2017-09-24T00:36:47.067Z,24.98
2017-09-24T00:39:13.673Z,27.58
2017-09-24T00:41:40.309Z,27.40
2017-09-24T00:44:06.987Z,28.48
2017-09-24T00:46:33.593Z,27.60
2017-09-24T00:49:00.222Z,27.50
2017-09-24T00:51:26.901Z,25.55
2017-09-24T00:53:53.510Z,27.90
2017-09-24T00:56:20.178Z,27.13
2017-09-24T00:58:46.791Z,27.48
2017-09-24T01:01:13.397Z,26.87
2017-09-24T01:03:40.026Z,28.27
2017-09-24T01:06:06.635Z,29.40
2017-09-24T01:08:33.249Z,29.08
2017-09-24T01:10:59.874Z,27.33
2017-09-24T01:13:26.546Z,28.50
2017-09-24T01:15:53.155Z,29.48
2017-09-24T01:18:19.785Z,26.65
2017-09-24T01:20:46.397Z,30.10
2017-09-24T01:23:13.101Z,28.15
2017-09-24T01:25:39.721Z,28.30
2017-09-24T01:28:06.381Z,28.92
2017-09-24T01:30:32.994Z,29.55
2017-09-24T01:32:59.622Z,28.02
2017-09-24T01:35:26.242Z,26.67
2017-09-24T01:37:52.858Z,26.83
2017-09-24T01:40:19.577Z,27.60
2017-09-24T01:42:46.190Z,27.65
2017-09-24T01:45:12.804Z,27.50
2017-09-24T01:47:39.500Z,26.80
2017-09-24T01:50:06.110Z,27.75
2017-09-24T01:52:32.721Z,30.00
2017-09-24T01:54:59.352Z,29.50
2017-09-24T01:57:25.966Z,28.27
2017-09-24T01:59:52.583Z,27.05
2017-09-24T02:02:19.215Z,28.40
2017-09-24T02:04:45.822Z,31.00
2017-09-24T02:07:12.440Z,29.15
2017-09-24T02:09:39.066Z,30.30
2017-09-24T02:12:05.673Z,30.50
2017-09-24T02:14:32.285Z,29.83
2017-09-24T02:16:58.906Z,31.50
2017-09-24T02:19:25.522Z,33.42
2017-09-24T02:21:52.133Z,31.17
2017-09-24T02:24:18.757Z,33.50
2017-09-24T02:26:45.374Z,30.35
2017-09-24T02:29:11.988Z,31.62
2017-09-24T02:31:38.609Z,34.97
2017-09-24T02:34:05.217Z,34.55
2017-09-24T02:36:31.830Z,31.27
2017-09-24T02:38:58.462Z,32.38
2017-09-24T02:41:25.073Z,34.88
2017-09-24T02:43:51.689Z,32.53
2017-09-24T02:46:18.425Z,32.05
2017-09-24T02:48:45.068Z,31.83
2017-09-24T02:51:11.705Z,36.50
2017-09-24T02:53:38.447Z,32.65
2017-09-24T02:56:05.062Z,31.70
2017-09-24T02:58:31.670Z,31.40
2017-09-24T03:00:58.304Z,38.80
2017-09-24T03:03:24.914Z,34.65
2017-09-24T03:05:51.527Z,31.35
2017-09-24T03:08:18.154Z,28.27
2017-09-24T03:10:44.814Z,33.53
2017-09-24T03:13:11.460Z,32.70
2017-09-24T03:15:38.082Z,38.33
2017-09-24T03:18:04.693Z,29.33
2017-09-24T03:20:31.375Z,40.67
2017-09-24T03:22:58.007Z,30.55
2017-09-24T03:25:24.622Z,34.85
2017-09-24T03:27:51.230Z,32.30
2017-09-24T03:30:17.868Z,31.62
2017-09-24T03:32:44.566Z,31.00
2017-09-24T03:35:11.184Z,30.90
2017-09-24T03:37:37.805Z,32.33
2017-09-24T03:40:04.482Z,31.87
2017-09-24T03:42:31.117Z,30.33
2017-09-24T03:44:57.755Z,30.37
2017-09-24T03:47:24.366Z,30.70
2017-09-24T03:49:50.978Z,30.42
2017-09-24T03:52:17.611Z,30.35
2017-09-24T03:54:44.285Z,31.50
2017-09-24T03:57:10.904Z,33.22
2017-09-24T03:59:37.536Z,30.23
2017-09-24T04:02:04.142Z,33.75
2017-09-24T04:04:30.755Z,33.53
2017-09-24T04:06:57.386Z,31.98
2017-09-24T04:09:23.998Z,31.02
2017-09-24T04:11:50.617Z,31.87
2017-09-24T04:14:17.243Z,30.50
2017-09-24T04:16:43.862Z,33.03
2017-09-24T04:19:10.506Z,32.92
2017-09-24T04:21:37.246Z,30.48
2017-09-24T04:24:03.858Z,33.15
2017-09-24T04:26:30.471Z,31.23
2017-09-24T04:28:57.107Z,32.42
2017-09-24T04:31:23.717Z,31.62
2017-09-24T04:33:50.330Z,28.62
2017-09-24T04:36:16.973Z,30.30
2017-09-24T04:38:43.590Z,31.52
2017-09-24T04:41:10.262Z,29.75
2017-09-24T04:43:36.990Z,30.80
2017-09-24T04:46:03.601Z,30.50
2017-09-24T04:48:30.318Z,29.77
2017-09-24T04:50:57.013Z,29.63
2017-09-24T04:53:23.619Z,30.35
2017-09-24T04:55:50.233Z,30.95
2017-09-24T04:58:16.858Z,30.35
2017-09-24T05:00:43.575Z,31.62
2017-09-24T05:03:10.191Z,29.52
2017-09-24T05:05:36.856Z,30.80
2017-09-24T05:08:03.470Z,30.17
2017-09-24T05:10:30.091Z,28.15
2017-09-24T05:12:56.775Z,33.42
2017-09-24T05:15:23.393Z,30.65
2017-09-24T05:17:49.996Z,28.75
2017-09-24T05:20:16.635Z,32.25
2017-09-24T05:22:43.322Z,31.83
2017-09-24T05:25:09.933Z,27.70
2017-09-24T05:27:36.556Z,27.13
2017-09-24T05:30:03.176Z,27.90
2017-09-24T05:32:29.783Z,28.15
2017-09-24T05:34:56.418Z,27.60
2017-09-24T05:37:23.026Z,28.85
2017-09-24T05:39:49.635Z,30.52
2017-09-24T05:42:16.266Z,27.65
2017-09-24T05:44:42.874Z,28.25
2017-09-24T05:47:09.494Z,27.15
2017-09-24T05:49:36.122Z,29.35
2017-09-24T05:52:02.738Z,25.85
2017-09-24T05:54:29.429Z,25.62
2017-09-24T05:56:56.176Z,25.70
2017-09-24T05:59:22.810Z,24.92
2017-09-24T06:01:49.426Z,25.42
2017-09-24T06:04:16.086Z,25.80
2017-09-24T06:06:42.703Z,27.20
2017-09-24T06:09:09.363Z,24.50
2017-09-24T06:11:35.986Z,25.42
2017-09-24T06:14:02.602Z,29.20
2017-09-24T06:16:29.210Z,25.42
2017-09-24T06:18:55.838Z,26.23
2017-09-24T06:21:22.458Z,27.52
2017-09-24T06:23:49.072Z,26.23
2017-09-24T06:26:15.702Z,27.30
2017-09-24T06:28:42.305Z,24.15
2017-09-24T06:31:09.013Z,26.40
2017-09-24T06:33:35.642Z,24.67
2017-09-24T06:36:02.258Z,25.90
2017-09-24T06:38:28.871Z,25.08
2017-09-24T06:40:55.503Z,29.58
2017-09-24T06:43:22.114Z,27.00
2017-09-24T06:45:48.750Z,25.60
2017-09-24T06:48:15.383Z,26.70
2017-09-24T06:50:41.990Z,27.37
2017-09-24T06:53:08.600Z,25.65
2017-09-24T06:55:35.234Z,26.42
2017-09-24T06:58:01.837Z,27.90
2017-09-24T07:00:28.477Z,26.00
2017-09-24T07:02:55.110Z,26.12
2017-09-24T07:05:21.749Z,26.62
2017-09-24T07:07:48.363Z,24.33
2017-09-24T07:10:14.983Z,23.70
2017-09-24T07:12:41.604Z,24.27
2017-09-24T07:15:08.208Z,24.92
2017-09-24T07:17:34.842Z,23.08
2017-09-24T07:20:01.454Z,24.58
2017-09-24T07:22:28.059Z,22.73
2017-09-24T07:24:54.766Z,25.20
2017-09-24T07:27:21.383Z,25.80
2017-09-24T07:29:47.989Z,29.42
2017-09-24T07:32:14.614Z,23.77
2017-09-24T07:34:41.229Z,24.50
2017-09-24T07:37:07.838Z,25.60
2017-09-24T07:39:34.494Z,23.35
2017-09-24T07:42:01.112Z,25.37
2017-09-24T07:44:27.718Z,26.48
2017-09-24T07:46:54.413Z,23.80
2017-09-24T07:49:21.029Z,25.40
2017-09-24T07:51:47.689Z,24.85
2017-09-24T07:54:14.313Z,25.55
2017-09-24T07:56:40.921Z,25.50
2017-09-24T07:59:07.529Z,25.05
2017-09-24T08:01:34.164Z,24.35
2017-09-24T08:04:00.774Z,23.60
2017-09-24T08:06:27.398Z,23.30
2017-09-24T08:08:54.026Z,24.48
2017-09-24T08:11:20.706Z,22.55
2017-09-24T08:13:47.313Z,25.00
2017-09-24T08:16:13.942Z,31.12
2017-09-24T08:18:40.558Z,26.33
2017-09-24T08:21:07.257Z,23.70
2017-09-24T08:23:33.999Z,23.23
2017-09-24T08:26:00.638Z,22.40
2017-09-24T08:28:27.250Z,19.70
2017-09-24T08:30:53.874Z,21.08
2017-09-24T08:33:20.558Z,20.02
2017-09-24T08:35:47.175Z,19.52
2017-09-24T08:38:13.802Z,20.15
2017-09-24T08:40:40.475Z,20.70
2017-09-24T08:43:07.109Z,20.05
2017-09-24T08:45:33.747Z,20.70
2017-09-24T08:48:00.393Z,23.38
2017-09-24T08:50:27.015Z,20.60
2017-09-24T08:52:53.638Z,21.62
2017-09-24T08:55:20.311Z,20.48
2017-09-24T08:57:46.926Z,20.83
2017-09-24T09:00:13.558Z,20.58
2017-09-24T09:02:40.222Z,20.08
2017-09-24T09:05:06.861Z,21.85
2017-09-24T09:07:33.481Z,18.58
2017-09-24T09:10:00.138Z,18.87
2017-09-24T09:12:26.769Z,19.15
2017-09-24T09:14:53.397Z,16.50
2017-09-24T09:17:20.049Z,16.80
2017-09-24T09:19:46.698Z,17.23
2017-09-24T09:22:13.325Z,16.83
2017-09-24T09:24:39.942Z,14.95
2017-09-24T09:27:06.555Z,14.32
2017-09-24T09:29:33.192Z,12.55
2017-09-24T09:31:59.806Z,14.15
2017-09-24T09:34:34.419Z,12.00
2017-09-24T09:37:01.021Z,9.38
2017-09-24T09:39:27.638Z,11.80
2017-09-24T09:41:54.330Z,10.27
2017-09-24T09:44:26.910Z,14.40
2017-09-24T09:46:58.494Z,11.10
2017-09-24T09:49:25.107Z,8.52
2017-09-24T09:51:51.718Z,8.43
2017-09-24T09:54:18.346Z,6.72
2017-09-24T09:56:44.949Z,6.93
2017-09-24T09:59:11.553Z,9.23
2017-09-24T10:01:38.178Z,11.93
2017-09-24T10:04:05.087Z,15.50
2017-09-24T10:06:37.846Z,11.10
2017-09-24T10:09:10.379Z,11.07
2017-09-24T10:11:37.002Z,11.25
2017-09-24T10:14:04.032Z,9.45
2017-09-24T10:16:30.830Z,9.07
2017-09-24T10:18:57.458Z,13.48
2017-09-24T10:21:24.358Z,10.65
2017-09-24T10:23:52.035Z,13.90
2017-09-24T10:26:18.670Z,11.65
2017-09-24T10:28:51.341Z,9.18
2017-09-24T10:31:38.886Z,10.45
2017-09-24T10:34:05.778Z,10.27
2017-09-24T10:36:32.762Z,9.48
2017-09-24T10:38:59.698Z,9.60
2017-09-24T10:41:26.405Z,7.60
2017-09-24T10:43:53.088Z,7.57
2017-09-24T10:46:19.966Z,7.43
2017-09-24T10:48:47.392Z,8.35
2017-09-24T10:51:14.951Z,7.45
2017-09-24T10:53:42.307Z,8.77
2017-09-24T10:56:09.274Z,7.78
2017-09-24T10:58:36.507Z,9.63
2017-09-24T11:01:04.819Z,9.30
2017-09-24T11:03:31.650Z,11.25
2017-09-24T11:05:58.499Z,6.12
2017-09-24T11:08:25.117Z,7.40
2017-09-24T11:10:52.265Z,13.55
2017-09-24T11:13:19.957Z,26.95
2017-09-24T11:15:46.602Z,5.40
2017-09-24T11:18:13.214Z,29.83
2017-09-24T11:20:40.662Z,16.73
2017-09-24T11:23:08.239Z,13.35
2017-09-24T11:25:34.901Z,11.52
2017-09-24T11:28:01.562Z,5.57
2017-09-24T11:30:28.463Z,5.93
2017-09-24T11:32:55.146Z,10.82
2017-09-24T11:35:23.568Z,6.68
2017-09-24T11:37:50.413Z,8.32
2017-09-24T11:40:17.069Z,7.28
2017-09-24T11:42:43.750Z,8.18
2017-09-24T11:45:10.370Z,5.45
2017-09-24T11:47:37.016Z,5.53
2017-09-24T11:50:03.642Z,7.47
2017-09-24T11:52:30.262Z,4.30
2017-09-24T11:54:57.192Z,5.78
2017-09-24T11:57:23.879Z,9.73
2017-09-24T11:59:50.716Z,6.10
2017-09-24T12:02:17.620Z,8.07
2017-09-24T12:04:44.568Z,5.72
2017-09-24T12:07:11.307Z,5.82
2017-09-24T12:09:37.906Z,6.78
2017-09-24T12:12:04.522Z,7.55
2017-09-24T12:14:31.803Z,7.70
2017-09-24T12:16:58.949Z,7.55
2017-09-24T12:19:25.686Z,7.72
2017-09-24T12:21:53.191Z,7.90
2017-09-24T12:24:20.058Z,6.15
2017-09-24T12:26:46.776Z,3.90
2017-09-24T12:29:14.030Z,5.97
2017-09-24T12:31:40.976Z,3.78
2017-09-24T12:34:08.025Z,5.30
2017-09-24T12:36:34.683Z,5.12
2017-09-24T12:39:01.361Z,3.85
2017-09-24T12:41:27.965Z,3.60
2017-09-24T12:43:54.615Z,11.10
2017-09-24T12:46:21.294Z,5.18
2017-09-24T12:48:47.896Z,4.97
2017-09-24T12:51:14.521Z,7.05
2017-09-24T12:53:41.135Z,4.60
2017-09-24T12:56:07.750Z,2.42
2017-09-24T12:58:34.389Z,4.00
2017-09-24T13:01:00.990Z,6.67
2017-09-24T13:03:27.594Z,2.33
2017-09-24T13:05:54.213Z,2.90
2017-09-24T13:08:20.821Z,3.00
2017-09-24T13:10:47.425Z,8.67
2017-09-24T13:13:14.043Z,1.20
2017-09-24T13:15:40.641Z,0.80
2017-09-24T13:18:07.282Z,3.70
2017-09-24T13:20:33.901Z,6.37
2017-09-24T13:23:00.497Z,2.00
2017-09-24T13:25:27.106Z,4.53
2017-09-24T13:27:53.831Z,5.07
2017-09-24T13:30:20.433Z,3.17
2017-09-24T13:32:47.038Z,3.97
2017-09-24T13:35:13.754Z,9.30
2017-09-24T13:37:40.357Z,3.20
2017-09-24T13:40:06.958Z,2.37
2017-09-24T13:42:33.578Z,2.33
2017-09-24T13:45:00.186Z,2.00
2017-09-24T13:47:26.787Z,6.10
2017-09-24T13:49:53.407Z,5.03
2017-09-24T13:52:20.123Z,2.10
2017-09-24T13:54:46.725Z,1.80
2017-09-24T13:57:13.345Z,3.83
2017-09-24T13:59:39.954Z,3.78
2017-09-24T14:02:06.566Z,4.35
2017-09-24T14:04:33.187Z,1.65
2017-09-24T14:06:59.850Z,4.15
2017-09-24T14:09:26.454Z,2.42
2017-09-24T14:11:53.134Z,6.22
2017-09-24T14:14:19.733Z,4.30
2017-09-24T14:16:46.405Z,2.97
2017-09-24T14:19:13.038Z,14.23
2017-09-24T14:21:39.638Z,4.65
2017-09-24T14:24:06.237Z,3.97
2017-09-24T14:26:32.867Z,4.32
2017-09-24T14:28:59.473Z,4.35
2017-09-24T14:31:26.078Z,4.12
2017-09-24T14:33:52.701Z,4.80
2017-09-24T14:36:19.297Z,6.50
2017-09-24T14:38:45.954Z,10.55
2017-09-24T14:41:12.579Z,4.62
2017-09-24T14:43:39.185Z,4.20
2017-09-24T14:46:05.790Z,5.65
2017-09-24T14:48:32.411Z,6.55
2017-09-24T14:50:59.021Z,6.43
2017-09-24T14:53:25.623Z,4.85
2017-09-24T14:55:52.241Z,5.30
2017-09-24T14:58:18.847Z,3.95
2017-09-24T15:00:45.452Z,6.00
2017-09-24T15:03:12.079Z,4.20
2017-09-24T15:05:38.783Z,4.65
2017-09-24T15:08:05.383Z,4.62
2017-09-24T15:10:32.010Z,6.68
2017-09-24T15:12:58.613Z,8.45
2017-09-24T15:15:25.223Z,4.05
2017-09-24T15:17:51.846Z,5.05
2017-09-24T15:20:18.453Z,4.97
2017-09-24T15:22:45.068Z,6.20
2017-09-24T15:25:11.693Z,5.65
2017-09-24T15:27:38.294Z,5.43
2017-09-24T15:30:04.919Z,4.75
2017-09-24T15:32:31.539Z,5.95
2017-09-24T15:34:58.141Z,6.90
2017-09-24T15:37:24.754Z,5.87
2017-09-24T15:39:51.372Z,5.90
2017-09-24T15:42:17.974Z,6.70
2017-09-24T15:44:44.586Z,6.35
2017-09-24T15:47:11.209Z,5.15
2017-09-24T15:49:37.810Z,6.53
2017-09-24T15:52:04.422Z,6.70
2017-09-24T15:54:31.047Z,8.77
2017-09-24T15:56:57.649Z,5.93
2017-09-24T15:59:24.247Z,5.87
2017-09-24T16:01:50.971Z,13.25
2017-09-24T16:04:17.571Z,20.62
2017-09-24T16:06:44.243Z,6.70
2017-09-24T16:09:10.861Z,6.85
2017-09-24T16:11:37.473Z,20.55
2017-09-24T16:14:04.082Z,7.10
2017-09-24T16:16:30.707Z,12.43
2017-09-24T16:18:57.313Z,6.85
2017-09-24T16:21:23.922Z,5.78
2017-09-24T16:23:50.546Z,8.75
2017-09-24T16:26:17.149Z,7.53
2017-09-24T16:28:43.754Z,5.70
2017-09-24T16:31:10.382Z,6.30
2017-09-24T16:33:36.985Z,6.60
2017-09-24T16:36:03.601Z,6.82
2017-09-24T16:38:30.218Z,6.78
2017-09-24T16:40:56.824Z,7.15
2017-09-24T16:43:23.523Z,6.45
2017-09-24T16:45:50.146Z,7.85
2017-09-24T16:48:16.759Z,6.90
2017-09-24T16:50:43.438Z,6.10
2017-09-24T16:53:10.062Z,8.60
2017-09-24T16:55:37.015Z,7.28
2017-09-24T16:58:03.609Z,7.32
2017-09-24T17:00:30.232Z,6.97
2017-09-24T17:02:56.842Z,13.88
2017-09-24T17:05:23.478Z,8.30
2017-09-24T17:07:50.097Z,7.70
2017-09-24T17:10:16.702Z,11.10
2017-09-24T17:12:43.314Z,9.50
2017-09-24T17:15:10.034Z,11.23
2017-09-24T17:17:36.677Z,9.38
2017-09-24T17:20:03.286Z,7.65
2017-09-24T17:22:29.950Z,7.70
2017-09-24T17:24:56.598Z,7.30
2017-09-24T17:27:23.199Z,7.62
2017-09-24T17:29:49.818Z,8.20
2017-09-24T17:32:16.427Z,8.90
2017-09-24T17:34:43.030Z,7.95
2017-09-24T17:37:09.662Z,14.93
2017-09-24T17:39:36.276Z,9.73
2017-09-24T17:42:02.882Z,9.40
2017-09-24T17:44:29.498Z,8.70
2017-09-24T17:46:56.114Z,11.60
2017-09-24T17:49:22.728Z,8.25
2017-09-24T17:51:49.370Z,8.90
2017-09-24T17:54:15.992Z,11.10
2017-09-24T17:56:42.739Z,10.18
2017-09-24T17:59:09.372Z,10.77
2017-09-24T18:01:35.982Z,12.82
2017-09-24T18:04:02.593Z,10.25
2017-09-24T18:06:29.246Z,10.27
2017-09-24T18:08:55.890Z,8.63
2017-09-24T18:11:22.498Z,9.23
2017-09-24T18:13:49.117Z,11.60
2017-09-24T18:16:15.734Z,12.25
2017-09-24T18:18:42.347Z,9.90
2017-09-24T18:21:08.963Z,9.98
2017-09-24T18:23:35.569Z,9.48
2017-09-24T18:26:02.174Z,10.55
2017-09-24T18:28:28.805Z,12.13
2017-09-24T18:30:55.421Z,11.63
2017-09-24T18:33:22.081Z,12.40
2017-09-24T18:35:48.718Z,13.00
2017-09-24T18:38:15.330Z,14.30
2017-09-24T18:40:41.999Z,13.38
2017-09-24T18:43:08.734Z,11.65
2017-09-24T18:45:35.354Z,13.10
2017-09-24T18:48:01.971Z,21.02
2017-09-24T18:50:28.604Z,15.15
2017-09-24T18:52:55.219Z,14.80
2017-09-24T18:55:21.826Z,17.45
2017-09-24T18:57:48.519Z,16.70
2017-09-24T19:00:15.149Z,13.62
2017-09-24T19:02:41.770Z,14.20
2017-09-24T19:05:08.475Z,12.55
2017-09-24T19:07:35.126Z,16.55
2017-09-24T19:10:01.766Z,12.43
2017-09-24T19:12:28.406Z,11.60
2017-09-24T19:14:55.027Z,12.25
2017-09-24T19:17:21.643Z,13.35
2017-09-24T19:19:48.269Z,11.70
2017-09-24T19:22:14.881Z,11.43
2017-09-24T19:24:41.509Z,10.13
2017-09-24T19:27:09.003Z,13.20
2017-09-24T19:29:35.671Z,9.63
2017-09-24T19:32:02.342Z,11.12
2017-09-24T19:34:28.966Z,11.57
2017-09-24T19:36:55.591Z,10.98
2017-09-24T19:39:22.318Z,14.68
2017-09-24T19:41:48.966Z,15.20
2017-09-24T19:44:15.595Z,27.87
2017-09-24T19:46:42.215Z,14.00
2017-09-24T19:49:08.847Z,14.07
2017-09-24T19:51:35.456Z,14.02
2017-09-24T19:54:02.071Z,14.02
2017-09-24T19:56:28.703Z,15.25
2017-09-24T19:58:55.319Z,22.33
2017-09-24T20:01:21.940Z,12.80
2017-09-24T20:03:48.574Z,13.55
2017-09-24T20:06:15.186Z,18.98
2017-09-24T20:08:41.801Z,20.60
2017-09-24T20:11:08.435Z,14.20
2017-09-24T20:13:35.042Z,14.90
2017-09-24T20:16:01.654Z,19.67
2017-09-24T20:18:28.282Z,17.08
2017-09-24T20:20:54.901Z,18.80
2017-09-24T20:23:21.505Z,15.55
2017-09-24T20:25:48.210Z,18.02
2017-09-24T20:28:14.822Z,16.83
2017-09-24T20:30:42.378Z,16.02
2017-09-24T20:33:09.007Z,14.50
2017-09-24T20:35:35.622Z,15.63
2017-09-24T20:38:02.247Z,17.77
2017-09-24T20:40:28.870Z,15.35
2017-09-24T20:42:55.511Z,16.75
2017-09-24T20:45:22.131Z,15.38
2017-09-24T20:47:48.824Z,15.20
2017-09-24T20:50:15.433Z,15.90
2017-09-24T20:52:42.042Z,14.35
2017-09-24T20:55:08.673Z,18.00
2017-09-24T20:57:35.281Z,16.80
2017-09-24T21:00:01.899Z,14.85
2017-09-24T21:02:28.530Z,14.15
2017-09-24T21:04:55.158Z,13.98
2017-09-24T21:07:21.770Z,16.20
2017-09-24T21:09:48.426Z,14.70
2017-09-24T21:12:15.050Z,14.40
2017-09-24T21:14:41.668Z,13.65
2017-09-24T21:17:08.333Z,15.85
2017-09-24T21:19:34.955Z,15.18
2017-09-24T21:22:01.565Z,14.52
2017-09-24T21:24:28.206Z,14.63
2017-09-24T21:26:54.906Z,15.45
2017-09-24T21:29:21.526Z,14.75
2017-09-24T21:31:48.619Z,15.38
2017-09-24T21:34:15.275Z,14.05
2017-09-24T21:36:41.881Z,16.60
2017-09-24T21:39:08.514Z,19.25
2017-09-24T21:41:35.128Z,14.40
2017-09-24T21:44:01.738Z,15.45
2017-09-24T21:46:28.393Z,17.00
2017-09-24T21:48:54.997Z,21.35
2017-09-24T21:51:22.167Z,16.77
2017-09-24T21:53:48.899Z,17.27
2017-09-24T21:56:15.538Z,17.37
2017-09-24T21:58:42.163Z,17.55
2017-09-24T22:01:08.816Z,16.83
2017-09-24T22:03:35.425Z,14.38
2017-09-24T22:06:02.038Z,16.95
2017-09-24T22:08:28.661Z,15.98
2017-09-24T22:10:55.282Z,14.68
2017-09-24T22:13:21.894Z,16.20
2017-09-24T22:15:48.584Z,14.65
2017-09-24T22:18:15.281Z,18.48
2017-09-24T22:20:41.930Z,13.62
2017-09-24T22:23:08.566Z,13.93
2017-09-24T22:25:35.238Z,16.92
2017-09-24T22:28:01.846Z,17.52
2017-09-24T22:30:28.514Z,22.40
2017-09-24T22:32:55.219Z,17.75
2017-09-24T22:35:21.850Z,19.58
2017-09-24T22:37:48.489Z,15.50
2017-09-24T22:40:15.101Z,15.35
2017-09-24T22:42:41.782Z,15.30
2017-09-24T22:45:08.565Z,20.23
2017-09-24T22:47:35.262Z,16.85
2017-09-24T22:50:01.882Z,16.08
2017-09-24T22:52:28.527Z,15.70
2017-09-24T22:54:55.138Z,15.43
2017-09-24T22:57:21.759Z,17.67
2017-09-24T22:59:48.398Z,16.42
2017-09-24T23:02:15.005Z,15.27
2017-09-24T23:04:41.627Z,16.55
2017-09-24T23:07:08.331Z,15.85
2017-09-24T23:09:35.008Z,14.70
2017-09-24T23:12:01.620Z,14.35
2017-09-24T23:14:28.250Z,22.62
2017-09-24T23:16:54.861Z,12.70
2017-09-24T23:19:21.471Z,16.65
2017-09-24T23:21:48.378Z,16.52
2017-09-24T23:24:15.008Z,15.70
2017-09-24T23:26:41.622Z,15.65
2017-09-24T23:29:08.254Z,16.42
2017-09-24T23:31:34.878Z,15.48
2017-09-24T23:34:01.534Z,16.12
2017-09-24T23:36:28.157Z,15.90
2017-09-24T23:38:54.778Z,21.08
2017-09-24T23:41:21.387Z,14.90
2017-09-24T23:43:48.086Z,13.40
2017-09-24T23:46:14.698Z,13.38
2017-09-24T23:48:41.326Z,17.52
2017-09-24T23:51:07.955Z,12.00
2017-09-24T23:53:34.569Z,12.77
2017-09-24T23:56:01.286Z,16.05
2017-09-24T23:58:28.035Z,13.88
